Terminal Aerodrome Forecast
Issued by NWS Wilmington, OH

Current Version | Previous Version | Text Only | Print | Product List | Glossary Off
Versions: 1 2 3 4 5 6 7 8 9 10 11 12 13 14 15 16 17 18 19

419
FTUS41 KILN 241120
TAFILN
TAF
KILN 241120Z 2412/2512 20003KT P6SM SKC
     FM241600 22007KT P6SM FEW250
     FM250800 19003KT P6SM BKN040=

USA.gov is the U.S. government's official web portal to all federal, state and local government web resources and services.